Terminal Aerodrome Forecast
Issued by NWS

Home | Current Version | Previous Version | Graphics & Text | Print | Product List | Glossary On
Versions: 1 2 3 4 5 6 7 8 9 10 11 12 13 14 15 16 17
000
FTUS43 KBIS 220532
TAFJMS
TAF
KJMS 220532Z 2206/2306 29007KT 4SM BR BKN004 OVC015
      TEMPO 2206/2209 SCT001 OVC005
     FM220900 29005KT 4SM BR BKN002 OVC008
     FM221200 30007KT 5SM BR OVC008
     FM222000 29010KT P6SM OVC015=

USA.gov is the U.S. government's official web portal to all federal, state and local government web resources and services.